Time;durP1;ratioP1;P1;durP2;ratioP2;P2;SDS_P1;SDS_P2;PMS_P1;PMS_P2;Temp;Humidity;BMP_temperature;BMP_pressure;BME280_temperature;BME280_humidity;BME280_pressure;Samples;Min_cycle;Max_cycle;Signal;HPM_P1;HPM_P2
2022/01/10 00:01:07;;;;;;;32.78;4.15;;;2.70;99.90;;;;;;5116488;27;20035;-81
2022/01/10 00:03:33;;;;;;;24.25;4.70;;;2.70;99.90;;;;;;5108663;27;20388;-81
2022/01/10 00:05:59;;;;;;;34.63;5.05;;;2.70;99.90;;;;;;5117202;27;20080;-81
2022/01/10 00:08:24;;;;;;;29.50;4.47;;;2.70;99.90;;;;;;5116872;27;20092;-81
2022/01/10 00:10:51;;;;;;;30.25;5.70;;;2.80;99.90;;;;;;5133516;27;20051;-81
2022/01/10 00:13:17;;;;;;;30.10;4.90;;;2.70;99.90;;;;;;5116834;27;20039;-81
2022/01/10 00:15:44;;;;;;;32.45;4.68;;;2.80;99.90;;;;;;5132842;27;20052;-81
2022/01/10 00:18:10;;;;;;;27.75;5.40;;;2.80;99.90;;;;;;5116987;27;20459;-81
2022/01/10 00:20:37;;;;;;;23.08;4.63;;;2.80;99.90;;;;;;5117345;27;20043;-81
2022/01/10 00:23:03;;;;;;;37.42;5.75;;;2.70;99.90;;;;;;5133591;27;20537;-81
2022/01/10 00:25:30;;;;;;;43.00;5.20;;;2.70;99.90;;;;;;5117321;27;20054;-81
2022/01/10 00:27:56;;;;;;;29.33;4.97;;;2.70;99.90;;;;;;5116530;27;20047;-81
2022/01/10 00:30:24;;;;;;;27.70;4.63;;;2.70;99.90;;;;;;5133960;27;20047;-81
2022/01/10 00:32:51;;;;;;;33.67;4.82;;;2.70;99.90;;;;;;5116621;27;20051;-81
2022/01/10 00:35:17;;;;;;;28.77;4.15;;;2.70;99.90;;;;;;5099799;27;20471;-81
2022/01/10 00:37:43;;;;;;;29.48;4.60;;;2.60;99.90;;;;;;5099901;27;20120;-81
2022/01/10 00:40:11;;;;;;;30.45;4.32;;;2.40;99.90;;;;;;5112801;28;20468;-81
2022/01/10 00:42:37;;;;;;;35.40;5.80;;;2.40;99.90;;;;;;5118364;27;20051;-84
2022/01/10 00:45:13;;;;;;;35.17;4.63;;;2.40;99.90;;;;;;5122475;27;20059;-81
2022/01/10 00:47:39;;;;;;;29.30;4.85;;;2.40;99.90;;;;;;5100937;27;20039;-81
2022/01/10 00:50:05;;;;;;;26.85;5.70;;;2.40;99.90;;;;;;5133370;27;20051;-81
2022/01/10 00:52:31;;;;;;;30.88;5.38;;;2.30;99.90;;;;;;5133374;27;20043;-84
2022/01/10 00:54:57;;;;;;;24.48;5.40;;;2.40;99.90;;;;;;5112988;28;20066;-86
2022/01/10 00:57:22;;;;;;;31.17;6.45;;;2.30;99.90;;;;;;5096296;28;20044;-81
2022/01/10 00:59:48;;;;;;;32.88;5.28;;;2.30;99.90;;;;;;5095027;28;20048;-81
2022/01/10 01:02:14;;;;;;;24.30;5.15;;;2.30;99.90;;;;;;5116287;27;20444;-81
2022/01/10 01:04:40;;;;;;;24.08;5.57;;;2.30;99.90;;;;;;5109909;27;20045;-81
2022/01/10 01:07:05;;;;;;;31.65;6.07;;;2.30;99.90;;;;;;5081144;27;20383;-83
2022/01/10 01:09:32;;;;;;;29.67;6.45;;;2.20;99.90;;;;;;5085423;28;20055;-81
2022/01/10 01:17:15;;;;;;;27.52;5.70;;;2.20;99.90;;;;;;5133302;27;20081;-81
2022/01/10 01:20:30;;;;;;;27.92;6.28;;;2.20;99.90;;;;;;5132888;27;20051;-81
2022/01/10 01:25:14;;;;;;;28.20;6.07;;;2.20;99.90;;;;;;5133192;27;20109;-81
2022/01/10 01:27:41;;;;;;;29.55;6.60;;;2.20;99.90;;;;;;5133145;27;20487;-81
2022/01/10 01:30:08;;;;;;;29.42;6.40;;;2.10;99.90;;;;;;5115586;28;20506;-81
2022/01/10 01:32:34;;;;;;;25.80;6.15;;;2.00;99.90;;;;;;5133390;28;20364;-81
2022/01/10 01:35:05;;;;;;;29.27;6.50;;;2.00;99.90;;;;;;5099165;28;20103;-81
2022/01/10 01:37:31;;;;;;;33.33;6.63;;;2.00;99.90;;;;;;5117050;28;20125;-81
2022/01/10 01:39:58;;;;;;;31.15;6.35;;;2.00;99.90;;;;;;5115800;28;20130;-81
2022/01/10 01:44:59;;;;;;;34.80;6.20;;;1.90;99.90;;;;;;5111842;28;20071;-81
2022/01/10 01:47:25;;;;;;;41.05;6.63;;;1.90;99.90;;;;;;5095372;28;20480;-81
2022/01/10 01:49:50;;;;;;;28.70;7.28;;;2.00;99.90;;;;;;5078701;28;20044;-81
2022/01/10 01:52:16;;;;;;;27.15;5.60;;;1.90;99.90;;;;;;5095423;28;20141;-81
2022/01/10 01:54:42;;;;;;;34.67;6.95;;;1.80;99.90;;;;;;5130301;28;20046;-81
2022/01/10 01:57:08;;;;;;;35.10;5.68;;;1.90;99.90;;;;;;5095341;28;20087;-81
2022/01/10 01:59:36;;;;;;;27.25;5.95;;;1.80;99.90;;;;;;5078660;28;20051;-82
2022/01/10 02:02:02;;;;;;;30.02;6.50;;;1.70;99.90;;;;;;5112597;28;20040;-81
2022/01/10 02:04:27;;;;;;;24.75;6.05;;;1.80;99.90;;;;;;5112347;28;20354;-81
2022/01/10 02:06:53;;;;;;;29.52;6.30;;;1.70;99.90;;;;;;5078673;28;20055;-81
2022/01/10 02:09:19;;;;;;;28.77;5.80;;;1.70;99.90;;;;;;5078531;28;20044;-81
2022/01/10 02:11:44;;;;;;;26.80;5.45;;;1.60;99.90;;;;;;5093734;28;20035;-81
2022/01/10 02:14:10;;;;;;;24.52;6.03;;;1.50;99.90;;;;;;5114381;28;20042;-82
2022/01/10 02:16:42;;;;;;;24.63;5.93;;;1.50;99.90;;;;;;5114636;28;20123;-81
2022/01/10 02:19:08;;;;;;;29.10;5.70;;;1.50;99.90;;;;;;5099654;28;20047;-82
2022/01/10 02:21:35;;;;;;;22.23;5.75;;;1.50;99.90;;;;;;5111401;28;20062;-81
2022/01/10 02:24:00;;;;;;;28.80;6.30;;;1.40;99.90;;;;;;5095319;28;20040;-81
2022/01/10 02:26:26;;;;;;;29.05;7.65;;;1.40;99.90;;;;;;5078369;28;20051;-81
2022/01/10 02:28:52;;;;;;;23.80;6.45;;;1.40;99.90;;;;;;5103708;28;20402;-81
2022/01/10 02:31:18;;;;;;;26.83;6.78;;;1.50;99.90;;;;;;5098539;28;20042;-82
2022/01/10 02:33:46;;;;;;;24.63;6.13;;;1.50;99.90;;;;;;5112131;28;20044;-81
2022/01/10 02:38:46;;;;;;;27.27;7.10;;;1.50;99.90;;;;;;5097462;28;20048;-82
2022/01/10 02:41:18;;;;;;;36.85;6.85;;;1.60;99.90;;;;;;5098589;28;20039;-82
2022/01/10 02:43:43;;;;;;;27.50;7.18;;;1.60;99.90;;;;;;5124333;27;20055;-81
2022/01/10 02:46:09;;;;;;;31.98;7.40;;;1.60;99.90;;;;;;5119260;27;20047;-83
2022/01/10 02:48:35;;;;;;;26.15;6.63;;;1.70;99.90;;;;;;5081536;28;20051;-81
2022/01/10 02:51:00;;;;;;;29.27;7.10;;;1.60;99.90;;;;;;5098597;28;20046;-81
2022/01/10 02:53:26;;;;;;;28.38;7.05;;;1.70;99.90;;;;;;5101189;27;20084;-82
2022/01/10 02:55:52;;;;;;;34.75;6.78;;;1.60;99.90;;;;;;5101768;27;20495;-81
2022/01/10 02:58:17;;;;;;;24.15;6.40;;;1.60;99.90;;;;;;5101511;27;20074;-81
2022/01/10 03:00:43;;;;;;;34.28;6.75;;;1.60;99.90;;;;;;5101834;27;20172;-81
2022/01/10 03:03:09;;;;;;;37.47;7.75;;;1.70;99.90;;;;;;5135208;27;20047;-81
2022/01/10 03:05:34;;;;;;;32.15;6.82;;;1.70;99.90;;;;;;5135211;27;20047;-81
2022/01/10 03:08:02;;;;;;;24.42;6.25;;;1.60;99.90;;;;;;5101515;27;20126;-81
2022/01/10 03:10:28;;;;;;;22.38;5.90;;;1.60;99.90;;;;;;5117910;27;20122;-81
2022/01/10 03:12:54;;;;;;;30.52;7.03;;;1.60;99.90;;;;;;5083342;27;20180;-81
2022/01/10 03:15:20;;;;;;;24.83;6.47;;;1.60;99.90;;;;;;5097876;28;20040;-82
2022/01/10 03:17:45;;;;;;;38.53;7.10;;;1.60;99.90;;;;;;5098005;28;20043;-81
2022/01/10 03:20:11;;;;;;;20.35;6.40;;;1.60;99.90;;;;;;5111892;28;20063;-81
2022/01/10 03:22:37;;;;;;;34.85;7.28;;;1.60;99.90;;;;;;5114577;27;20045;-81
2022/01/10 03:25:04;;;;;;;33.33;6.75;;;1.50;99.90;;;;;;5118321;27;20463;-80
2022/01/10 03:27:30;;;;;;;34.78;7.45;;;1.50;99.90;;;;;;5118403;27;20104;-80
2022/01/10 03:29:56;;;;;;;30.20;7.40;;;1.50;99.90;;;;;;5118182;27;20437;-81
2022/01/10 03:32:22;;;;;;;33.88;7.18;;;1.40;99.90;;;;;;5135125;27;20441;-82
2022/01/10 03:34:48;;;;;;;23.35;6.88;;;1.30;99.90;;;;;;5116025;27;21263;-82
2022/01/10 03:37:13;;;;;;;30.25;7.22;;;1.30;99.90;;;;;;5117016;27;20042;-81
2022/01/10 03:39:39;;;;;;;36.58;7.47;;;1.30;99.90;;;;;;5133490;27;20035;-81
2022/01/10 03:42:05;;;;;;;30.90;7.03;;;1.20;99.90;;;;;;5097570;27;20075;-81
2022/01/10 03:44:31;;;;;;;30.80;7.25;;;1.10;99.90;;;;;;5098539;27;20058;-81
2022/01/10 03:46:57;;;;;;;32.92;7.18;;;1.10;99.90;;;;;;5117086;27;20093;-81
2022/01/10 03:49:24;;;;;;;28.95;6.43;;;1.10;99.90;;;;;;5116105;28;20626;-82
2022/01/10 03:51:49;;;;;;;27.42;7.30;;;1.10;99.90;;;;;;5117984;27;20046;-81
2022/01/10 03:54:15;;;;;;;30.58;7.80;;;1.00;99.90;;;;;;5100346;27;20043;-81
2022/01/10 03:56:41;;;;;;;31.25;7.15;;;1.10;99.90;;;;;;5134572;27;20034;-81
2022/01/10 03:59:07;;;;;;;28.38;7.90;;;0.90;99.90;;;;;;5096991;28;20125;-81
2022/01/10 04:01:35;;;;;;;35.58;8.43;;;0.90;99.90;;;;;;5117149;27;20093;-81
2022/01/10 04:04:01;;;;;;;34.92;8.40;;;0.90;99.90;;;;;;5117276;27;20135;-80
2022/01/10 04:06:26;;;;;;;33.60;7.90;;;0.90;99.90;;;;;;5134591;27;20105;-81
2022/01/10 04:08:52;;;;;;;31.33;7.53;;;0.80;99.90;;;;;;5134235;27;20238;-81
2022/01/10 04:11:18;;;;;;;35.47;7.22;;;0.70;99.90;;;;;;5099865;27;20039;-81
2022/01/10 04:13:43;;;;;;;33.45;8.10;;;0.70;99.90;;;;;;5116212;27;20130;-81
2022/01/10 04:16:09;;;;;;;27.63;7.85;;;0.60;99.90;;;;;;5133802;27;20046;-81
2022/01/10 04:18:35;;;;;;;27.88;7.85;;;0.60;99.90;;;;;;5099377;27;20047;-81
2022/01/10 04:21:00;;;;;;;34.78;8.57;;;0.60;99.90;;;;;;5116560;27;20040;-81
2022/01/10 04:23:26;;;;;;;41.83;9.90;;;0.70;99.90;;;;;;5113346;28;20043;-84
2022/01/10 04:25:52;;;;;;;28.65;9.32;;;0.70;99.90;;;;;;5113731;27;20074;-81
2022/01/10 04:28:17;;;;;;;33.78;9.48;;;0.80;99.90;;;;;;5100033;27;20050;-81
2022/01/10 04:30:44;;;;;;;40.00;10.65;;;0.80;99.90;;;;;;5097931;27;20043;-81
2022/01/10 04:33:16;;;;;;;34.58;9.48;;;0.80;99.90;;;;;;5099889;27;20139;-81
2022/01/10 04:35:42;;;;;;;34.47;9.35;;;0.80;99.90;;;;;;5100442;27;20134;-81
2022/01/10 04:38:08;;;;;;;38.33;9.82;;;0.80;99.90;;;;;;5117056;27;20133;-81
2022/01/10 04:40:33;;;;;;;36.17;9.90;;;0.80;99.90;;;;;;5095967;28;20089;-81
2022/01/10 04:42:59;;;;;;;40.83;10.93;;;0.80;99.90;;;;;;5079977;28;20036;-81
2022/01/10 04:45:25;;;;;;;39.40;10.32;;;0.80;99.90;;;;;;5133783;27;20047;-82
2022/01/10 04:47:51;;;;;;;40.20;10.80;;;0.80;99.90;;;;;;5097401;27;20036;-83
2022/01/10 04:52:50;;;;;;;40.67;11.18;;;0.70;99.90;;;;;;5114548;27;20070;-81
2022/01/10 04:55:16;;;;;;;27.75;9.05;;;0.70;99.90;;;;;;5115690;27;20031;-81
2022/01/10 04:57:42;;;;;;;32.38;9.57;;;0.70;99.90;;;;;;5133317;27;20054;-81
2022/01/10 05:00:12;;;;;;;33.45;10.23;;;0.70;99.90;;;;;;5115749;27;20039;-80
2022/01/10 05:02:39;;;;;;;33.47;11.70;;;0.70;99.90;;;;;;5099485;28;20399;-85
2022/01/10 05:05:05;;;;;;;49.83;13.05;;;0.80;99.90;;;;;;5133321;27;20180;-83
2022/01/10 05:07:31;;;;;;;33.47;11.85;;;0.70;99.90;;;;;;5115324;27;20062;-81
2022/01/10 05:10:00;;;;;;;41.65;12.65;;;0.70;99.90;;;;;;5116188;27;20047;-81
2022/01/10 05:12:27;;;;;;;36.28;12.95;;;0.80;99.90;;;;;;5116738;27;20050;-80
2022/01/10 05:14:53;;;;;;;32.38;12.50;;;0.80;99.90;;;;;;5096026;28;20051;-81
2022/01/10 05:17:21;;;;;;;37.55;11.45;;;0.70;99.90;;;;;;5106542;28;20061;-81
2022/01/10 05:19:47;;;;;;;39.15;12.07;;;0.70;99.90;;;;;;5132966;27;20139;-81
2022/01/10 05:22:13;;;;;;;38.75;11.93;;;0.80;99.90;;;;;;5133399;27;20085;-81
2022/01/10 05:24:38;;;;;;;36.65;12.85;;;0.70;99.90;;;;;;5116031;28;20039;-81
2022/01/10 05:27:04;;;;;;;35.13;12.48;;;0.80;99.90;;;;;;5098204;28;20039;-81
2022/01/10 05:29:30;;;;;;;37.92;13.88;;;0.80;99.90;;;;;;5099182;27;20445;-81
2022/01/10 05:31:56;;;;;;;38.88;14.32;;;0.80;99.90;;;;;;5116329;28;20051;-81
2022/01/10 05:34:22;;;;;;;43.85;14.55;;;0.90;99.90;;;;;;5112328;28;20048;-80
2022/01/10 05:36:48;;;;;;;45.65;14.60;;;1.00;99.90;;;;;;5122045;28;20053;-81
2022/01/10 05:39:14;;;;;;;41.08;13.23;;;1.00;99.90;;;;;;5115528;28;20055;-81
2022/01/10 05:41:39;;;;;;;44.03;17.45;;;1.10;99.90;;;;;;5114990;28;20031;-80
2022/01/10 05:44:05;;;;;;;48.33;16.17;;;1.10;99.90;;;;;;5112073;28;20051;-81
2022/01/10 05:46:34;;;;;;;43.72;14.82;;;1.10;99.90;;;;;;5078715;28;20105;-85
2022/01/10 05:49:02;;;;;;;36.13;15.23;;;1.00;99.90;;;;;;5107572;28;20506;-81
2022/01/10 05:51:32;;;;;;;42.60;16.65;;;1.00;99.90;;;;;;5095835;28;20067;-81
2022/01/10 05:53:59;;;;;;;46.85;15.82;;;1.00;99.90;;;;;;5115810;28;20415;-81
2022/01/10 05:56:25;;;;;;;54.90;18.48;;;1.00;99.90;;;;;;5132882;28;20084;-80
2022/01/10 05:58:51;;;;;;;50.05;17.10;;;1.10;99.90;;;;;;5132514;28;20047;-81
2022/01/10 06:01:16;;;;;;;53.10;18.10;;;1.00;99.90;;;;;;5115770;28;20088;-81
2022/01/10 06:03:42;;;;;;;44.92;15.85;;;1.10;99.90;;;;;;5097385;28;20081;-82
2022/01/10 06:06:08;;;;;;;44.10;16.90;;;1.10;99.90;;;;;;5098217;28;20051;-81
2022/01/10 06:08:34;;;;;;;43.20;16.77;;;1.00;99.90;;;;;;5081135;28;20047;-86
2022/01/10 06:10:59;;;;;;;59.65;19.05;;;1.10;99.90;;;;;;5115664;28;20046;-81
2022/01/10 06:13:25;;;;;;;56.35;19.63;;;1.10;99.90;;;;;;5100469;27;20039;-85
2022/01/10 06:15:51;;;;;;;59.13;18.98;;;1.10;99.90;;;;;;5119007;27;20046;-81
2022/01/10 06:18:17;;;;;;;63.53;19.55;;;1.00;99.90;;;;;;5136187;27;20047;-81
2022/01/10 06:20:43;;;;;;;51.58;19.20;;;1.00;99.90;;;;;;5117744;27;20039;-81
2022/01/10 06:23:11;;;;;;;52.60;18.85;;;1.00;99.90;;;;;;5101202;27;20385;-80
2022/01/10 06:25:38;;;;;;;61.33;19.48;;;1.00;99.90;;;;;;5098694;28;20044;-82
2022/01/10 06:28:05;;;;;;;55.95;18.23;;;1.00;99.90;;;;;;5096820;27;20054;-82
2022/01/10 06:30:31;;;;;;;68.90;21.85;;;0.90;99.90;;;;;;5136386;27;20039;-81
2022/01/10 06:32:56;;;;;;;59.38;18.45;;;0.90;99.90;;;;;;5118834;27;20047;-81
2022/01/10 06:35:23;;;;;;;70.97;19.95;;;0.90;99.90;;;;;;5119152;27;20043;-81
2022/01/10 06:37:49;;;;;;;51.67;17.77;;;0.80;99.90;;;;;;5090156;28;20122;-81
2022/01/10 06:40:15;;;;;;;76.80;23.63;;;0.80;99.90;;;;;;5115562;27;20035;-81
2022/01/10 06:42:41;;;;;;;75.47;26.35;;;0.80;99.90;;;;;;5135754;27;20075;-81
2022/01/10 06:45:08;;;;;;;64.35;21.38;;;0.80;99.90;;;;;;5100710;27;20470;-81
2022/01/10 06:47:34;;;;;;;65.65;21.33;;;0.90;99.90;;;;;;5098538;28;20040;-81
2022/01/10 06:50:00;;;;;;;66.05;21.85;;;0.80;99.90;;;;;;5126332;27;20043;-82
2022/01/10 06:52:25;;;;;;;69.00;20.27;;;0.80;99.90;;;;;;5098327;28;20043;-81
2022/01/10 06:54:51;;;;;;;65.28;20.23;;;0.70;99.90;;;;;;5113808;28;20036;-81
2022/01/10 06:57:17;;;;;;;66.53;21.77;;;0.70;99.90;;;;;;5098012;28;20048;-81
2022/01/10 06:59:43;;;;;;;79.10;23.98;;;0.70;99.90;;;;;;5115775;27;20050;-83
2022/01/10 07:02:09;;;;;;;73.90;23.33;;;0.70;99.90;;;;;;5128818;27;20122;-82
2022/01/10 07:04:35;;;;;;;63.25;21.65;;;0.70;99.90;;;;;;5118465;27;20095;-82
2022/01/10 07:07:01;;;;;;;69.97;22.67;;;0.70;99.90;;;;;;5135378;27;20168;-82
2022/01/10 07:09:26;;;;;;;75.53;23.58;;;0.70;99.90;;;;;;5118199;27;20035;-80
2022/01/10 07:11:52;;;;;;;64.60;21.33;;;0.60;99.90;;;;;;5096908;28;20131;-82
2022/01/10 07:14:18;;;;;;;59.45;21.17;;;0.50;99.90;;;;;;5106675;27;20551;-81
2022/01/10 07:16:44;;;;;;;73.68;22.48;;;0.60;99.90;;;;;;5117793;27;20039;-81
2022/01/10 07:19:09;;;;;;;69.53;20.65;;;0.50;99.90;;;;;;5084930;27;20039;-82
2022/01/10 07:21:38;;;;;;;54.63;19.08;;;0.50;99.90;;;;;;5117883;27;20484;-81
2022/01/10 07:24:04;;;;;;;63.58;18.95;;;0.50;99.90;;;;;;5111559;27;20145;-81
2022/01/10 07:26:32;;;;;;;56.65;19.95;;;0.40;99.90;;;;;;5101510;27;20042;-81
2022/01/10 07:28:58;;;;;;;51.60;19.90;;;0.40;99.90;;;;;;5085006;27;20142;-81
2022/01/10 07:31:24;;;;;;;67.07;21.42;;;0.40;99.90;;;;;;5097939;28;20047;-80
2022/01/10 07:33:49;;;;;;;50.85;19.90;;;0.30;99.90;;;;;;5080723;28;20052;-81
2022/01/10 07:36:15;;;;;;;64.78;21.33;;;0.30;99.90;;;;;;5081019;28;20043;-81
2022/01/10 07:38:41;;;;;;;73.43;22.15;;;0.30;99.90;;;;;;5100372;27;20371;-81
2022/01/10 07:41:07;;;;;;;67.78;20.55;;;0.30;99.90;;;;;;5075109;28;20096;-81
2022/01/10 07:43:35;;;;;;;151.50;23.70;;;0.20;99.90;;;;;;5113823;27;20376;-80
2022/01/10 07:46:01;;;;;;;225.73;27.77;;;0.20;99.90;;;;;;5115948;27;20051;-83
2022/01/10 07:48:29;;;;;;;206.38;27.67;;;0.20;99.90;;;;;;5079749;28;20051;-83
2022/01/10 07:50:55;;;;;;;230.27;27.38;;;0.20;99.90;;;;;;5114200;27;20053;-82
2022/01/10 07:53:21;;;;;;;229.55;27.42;;;0.10;99.90;;;;;;5117780;27;20043;-81
2022/01/10 07:55:47;;;;;;;265.75;29.80;;;0.10;99.90;;;;;;5117100;27;20071;-89
2022/01/10 07:58:13;;;;;;;203.57;27.08;;;0.00;99.90;;;;;;5097271;28;20047;-82
2022/01/10 08:00:39;;;;;;;246.43;30.77;;;0.00;99.90;;;;;;5106435;28;20096;-81
2022/01/10 08:03:04;;;;;;;254.65;33.00;;;0.10;99.90;;;;;;5086617;28;20048;-81
2022/01/10 08:05:30;;;;;;;244.98;30.10;;;0.00;99.90;;;;;;5097180;28;20044;-81
2022/01/10 08:07:56;;;;;;;185.60;25.90;;;0.00;99.90;;;;;;5096773;28;20043;-81
2022/01/10 08:10:22;;;;;;;196.77;27.30;;;0.00;99.90;;;;;;5080036;28;20052;-81
2022/01/10 08:12:48;;;;;;;218.13;27.75;;;0.10;99.90;;;;;;5113936;28;20058;-81
2022/01/10 08:15:14;;;;;;;202.80;27.30;;;-0.10;99.90;;;;;;5096785;28;20043;-81
2022/01/10 08:17:40;;;;;;;239.60;34.17;;;0.00;99.90;;;;;;5096323;28;20047;-81
2022/01/10 08:20:07;;;;;;;218.88;33.55;;;-0.10;99.90;;;;;;5102614;28;20511;-81
2022/01/10 08:22:32;;;;;;;161.00;30.02;;;0.00;99.90;;;;;;5096789;28;20052;-84
2022/01/10 08:24:58;;;;;;;204.27;32.38;;;0.00;99.90;;;;;;5096737;28;20044;-81
2022/01/10 08:27:24;;;;;;;198.43;32.35;;;0.00;99.90;;;;;;5123388;27;20073;-81
2022/01/10 08:29:50;;;;;;;200.63;32.85;;;0.10;99.90;;;;;;5134188;27;20065;-82
2022/01/10 08:32:16;;;;;;;170.95;31.20;;;0.10;99.90;;;;;;5133864;27;20046;-81
2022/01/10 08:34:42;;;;;;;250.25;36.67;;;0.10;99.90;;;;;;5117024;27;20399;-82
2022/01/10 08:37:08;;;;;;;327.20;39.58;;;0.10;99.90;;;;;;5089675;27;20047;-81
2022/01/10 08:39:34;;;;;;;225.90;34.75;;;0.00;99.90;;;;;;5116190;27;20043;-80
2022/01/10 08:42:01;;;;;;;331.48;40.78;;;0.00;99.90;;;;;;5116460;27;20095;-81
2022/01/10 08:44:27;;;;;;;162.60;32.95;;;0.10;99.90;;;;;;5116304;27;20476;-81
2022/01/10 08:46:53;;;;;;;180.30;33.92;;;0.10;99.90;;;;;;5132969;27;20047;-87
2022/01/10 08:49:19;;;;;;;226.95;35.17;;;0.20;99.90;;;;;;5112391;28;20070;-82
2022/01/10 08:51:46;;;;;;;211.93;32.33;;;0.10;99.90;;;;;;5096707;27;20479;-82
2022/01/10 08:54:12;;;;;;;250.90;36.78;;;0.20;99.90;;;;;;5131445;27;20463;-82
2022/01/10 08:56:39;;;;;;;235.07;33.20;;;0.10;99.90;;;;;;5132065;27;20042;-82
2022/01/10 08:59:05;;;;;;;298.85;36.65;;;0.10;99.90;;;;;;5121786;27;20035;-81
2022/01/10 09:01:32;;;;;;;194.85;34.72;;;0.10;99.90;;;;;;5127513;27;20510;-82
2022/01/10 09:03:59;;;;;;;241.93;35.75;;;0.20;99.90;;;;;;5105072;28;20043;-82
2022/01/10 09:06:25;;;;;;;275.27;39.90;;;0.20;99.90;;;;;;5108007;27;20475;-82
2022/01/10 09:08:51;;;;;;;291.50;37.75;;;0.30;99.90;;;;;;5082348;27;20047;-81
2022/01/10 09:11:17;;;;;;;241.60;35.97;;;0.40;99.90;;;;;;5115541;27;20054;-81
2022/01/10 09:13:43;;;;;;;162.90;32.30;;;0.30;99.90;;;;;;5113375;27;20071;-80
2022/01/10 09:16:11;;;;;;;193.13;34.17;;;0.20;99.90;;;;;;5131955;27;20127;-80
2022/01/10 09:18:37;;;;;;;118.65;31.30;;;0.30;99.90;;;;;;5098564;27;20047;-81
2022/01/10 09:21:03;;;;;;;102.47;31.10;;;0.40;99.90;;;;;;5112355;28;20043;-80
2022/01/10 09:23:29;;;;;;;88.25;30.95;;;0.40;99.90;;;;;;5094396;27;20096;-81
2022/01/10 09:25:55;;;;;;;118.05;36.65;;;0.40;99.90;;;;;;5111615;28;20044;-80
2022/01/10 09:28:20;;;;;;;123.78;37.92;;;0.40;99.90;;;;;;5106712;28;20054;-80
2022/01/10 09:30:48;;;;;;;96.47;33.20;;;0.50;99.90;;;;;;5107356;27;20114;-80
2022/01/10 09:33:14;;;;;;;109.05;35.88;;;0.50;99.90;;;;;;5132525;27;20054;-80
2022/01/10 09:35:42;;;;;;;82.32;32.75;;;0.60;99.90;;;;;;5133127;28;20387;-81
2022/01/10 09:38:08;;;;;;;74.78;30.33;;;0.70;99.90;;;;;;5082574;28;20078;-80
2022/01/10 09:40:34;;;;;;;71.75;33.72;;;0.70;99.90;;;;;;5132896;28;20475;-82
2022/01/10 09:43:00;;;;;;;63.53;33.08;;;0.70;99.90;;;;;;5098816;28;20043;-86
2022/01/10 09:45:26;;;;;;;59.95;32.83;;;0.80;99.90;;;;;;5115965;28;20483;-81
2022/01/10 09:47:52;;;;;;;60.30;32.45;;;0.80;99.90;;;;;;5083328;27;20043;-80
2022/01/10 09:50:18;;;;;;;43.20;28.27;;;0.80;99.90;;;;;;5102680;27;20111;-80
2022/01/10 09:52:47;;;;;;;58.97;33.00;;;0.90;99.90;;;;;;5102849;28;20047;-80
2022/01/10 09:55:13;;;;;;;43.00;29.15;;;0.90;99.90;;;;;;5082582;28;20104;-80
2022/01/10 09:57:38;;;;;;;43.55;28.58;;;0.90;99.90;;;;;;5082454;28;20040;-80
2022/01/10 10:00:06;;;;;;;54.35;32.03;;;0.90;99.90;;;;;;5065499;28;20048;-80
2022/01/10 10:02:34;;;;;;;58.63;34.20;;;1.10;99.90;;;;;;5112206;27;20118;-80
2022/01/10 10:05:03;;;;;;;67.13;36.08;;;1.10;99.90;;;;;;5121540;27;20440;-80
2022/01/10 10:07:28;;;;;;;52.45;32.97;;;1.20;99.90;;;;;;5136705;27;20047;-79
2022/01/10 10:10:01;;;;;;;53.33;33.10;;;1.30;99.90;;;;;;5102536;27;20050;-80
2022/01/10 10:12:30;;;;;;;57.05;34.17;;;1.30;99.90;;;;;;5119509;27;20065;-81
2022/01/10 10:14:56;;;;;;;57.95;35.05;;;1.40;99.90;;;;;;5119196;27;20054;-81
2022/01/10 10:17:22;;;;;;;50.50;32.08;;;1.40;99.90;;;;;;5086753;27;20035;-81
2022/01/10 10:19:49;;;;;;;53.15;32.30;;;1.50;99.90;;;;;;5100619;27;20051;-81
2022/01/10 10:22:16;;;;;;;52.00;33.33;;;1.40;99.90;;;;;;5100898;27;20051;-81
2022/01/10 10:24:45;;;;;;;53.17;33.85;;;1.50;99.90;;;;;;5127225;27;20048;-80
2022/01/10 10:27:14;;;;;;;56.25;33.60;;;1.50;99.90;;;;;;5131552;27;20110;-80
2022/01/10 10:29:41;;;;;;;53.03;34.95;;;1.60;99.90;;;;;;5114194;27;20115;-81
2022/01/10 10:32:09;;;;;;;52.60;33.10;;;1.60;99.90;;;;;;5115636;27;20103;-86
2022/01/10 10:34:35;;;;;;;62.97;36.13;;;1.70;99.90;;;;;;5115353;28;20054;-81
2022/01/10 10:37:08;;;;;;;52.00;34.42;;;1.80;99.90;;;;;;5112712;27;20050;-79
2022/01/10 10:39:39;;;;;;;56.40;35.67;;;1.80;99.90;;;;;;5125752;27;20122;-79
2022/01/10 10:42:08;;;;;;;53.83;34.53;;;2.00;99.90;;;;;;5118493;27;20035;-78
2022/01/10 10:44:34;;;;;;;58.33;36.22;;;2.00;99.90;;;;;;5117423;27;20047;-79
2022/01/10 10:47:00;;;;;;;55.75;36.00;;;2.10;99.90;;;;;;5131607;27;20058;-78
2022/01/10 10:49:34;;;;;;;55.95;35.25;;;2.20;99.90;;;;;;5104768;28;20039;-79
2022/01/10 10:52:03;;;;;;;59.40;37.47;;;2.20;99.90;;;;;;5129868;27;20058;-78
2022/01/10 10:54:33;;;;;;;63.10;38.78;;;2.30;99.90;;;;;;5106988;27;20047;-79
2022/01/10 10:57:04;;;;;;;63.00;39.13;;;2.40;99.90;;;;;;5132814;27;20546;-79
2022/01/10 10:59:35;;;;;;;69.80;41.75;;;2.60;99.90;;;;;;5100848;28;20054;-81
2022/01/10 11:02:02;;;;;;;60.28;37.95;;;2.70;99.90;;;;;;5098183;28;20079;-79
2022/01/10 11:04:32;;;;;;;62.42;39.92;;;2.80;99.90;;;;;;5098196;28;20079;-78
2022/01/10 11:06:58;;;;;;;65.45;39.78;;;2.90;99.90;;;;;;5114661;28;20052;-80
2022/01/10 11:09:25;;;;;;;58.33;39.67;;;3.10;99.90;;;;;;5081086;28;20455;-80
2022/01/10 11:11:51;;;;;;;66.20;43.47;;;3.20;99.90;;;;;;5097896;28;20048;-79
2022/01/10 11:14:21;;;;;;;62.42;41.63;;;3.50;99.90;;;;;;5098059;28;20372;-80
2022/01/10 11:16:49;;;;;;;45.97;34.55;;;3.90;99.90;;;;;;5081214;28;20043;-80
2022/01/10 11:19:18;;;;;;;44.42;29.92;;;4.20;99.90;;;;;;5097932;28;20131;-80
2022/01/10 11:22:04;;;;;;;36.42;24.95;;;4.60;99.90;;;;;;5114069;28;20044;-81
2022/01/10 11:24:53;;;;;;;31.10;22.27;;;5.00;99.90;;;;;;5120129;27;20116;-80
2022/01/10 11:27:36;;;;;;;30.95;20.13;;;5.40;99.90;;;;;;5102695;28;20051;-81
2022/01/10 11:30:24;;;;;;;28.60;18.88;;;5.60;99.90;;;;;;5097898;28;20499;-81
2022/01/10 11:32:51;;;;;;;28.33;18.60;;;6.00;99.90;;;;;;5130984;27;20047;-78
2022/01/10 11:35:18;;;;;;;25.67;17.30;;;6.30;99.90;;;;;;5131405;27;20047;-81
2022/01/10 11:37:45;;;;;;;29.25;18.50;;;6.40;99.90;;;;;;5106591;27;20130;-83
2022/01/10 11:40:13;;;;;;;28.95;18.33;;;6.70;99.90;;;;;;5105057;28;20141;-83
2022/01/10 11:43:08;;;;;;;27.27;17.17;;;6.80;99.90;;;;;;5096253;28;20048;-83
2022/01/10 11:45:42;;;;;;;25.63;18.23;;;6.90;99.90;;;;;;5067802;28;20070;-81
2022/01/10 11:48:11;;;;;;;26.10;16.40;;;7.10;99.90;;;;;;5068245;28;20044;-82
2022/01/10 11:50:41;;;;;;;20.65;14.75;;;7.30;99.90;;;;;;5076545;28;20488;-82
2022/01/10 11:53:08;;;;;;;28.33;17.38;;;7.50;99.90;;;;;;5107413;28;20047;-81
2022/01/10 11:55:43;;;;;;;22.60;16.33;;;7.50;99.90;;;;;;5080421;28;20044;-81
2022/01/10 11:58:20;;;;;;;25.65;15.88;;;7.50;99.90;;;;;;5114100;28;20097;-81
2022/01/10 12:00:46;;;;;;;22.65;15.95;;;7.60;99.90;;;;;;5078980;28;20047;-82
2022/01/10 12:03:12;;;;;;;28.65;15.02;;;7.70;99.90;;;;;;5095531;28;20035;-82
2022/01/10 12:05:39;;;;;;;25.08;16.40;;;7.80;99.90;;;;;;5090734;28;20523;-81
2022/01/10 12:08:06;;;;;;;24.48;15.98;;;7.80;99.90;;;;;;5096170;28;20052;-81
2022/01/10 12:10:32;;;;;;;26.35;15.50;;;7.90;99.90;;;;;;5078453;28;20164;-84
2022/01/10 12:13:06;;;;;;;26.20;16.23;;;7.70;99.90;;;;;;5062642;28;20484;-81
2022/01/10 12:15:33;;;;;;;22.75;15.45;;;7.70;99.90;;;;;;5096152;28;20400;-84
2022/01/10 12:17:59;;;;;;;26.15;16.88;;;7.60;99.90;;;;;;5079408;28;20134;-81
2022/01/10 12:20:25;;;;;;;27.70;16.48;;;7.80;99.90;;;;;;5075571;28;20131;-82
2022/01/10 12:22:55;;;;;;;26.48;16.08;;;7.90;99.90;;;;;;5059734;28;20047;-82
2022/01/10 12:25:21;;;;;;;25.48;17.08;;;8.00;99.90;;;;;;5059659;28;20051;-87
2022/01/10 12:27:53;;;;;;;25.63;15.80;;;7.80;99.90;;;;;;5059339;28;20044;-82
2022/01/10 12:30:20;;;;;;;26.02;16.08;;;8.00;99.90;;;;;;5094527;28;20044;-80
2022/01/10 12:32:46;;;;;;;25.13;15.23;;;8.00;99.90;;;;;;5079701;28;20139;-82
2022/01/10 12:35:12;;;;;;;27.63;16.20;;;7.80;99.90;;;;;;5062667;28;20050;-81
2022/01/10 12:37:38;;;;;;;25.67;16.33;;;7.60;99.90;;;;;;5096214;28;20103;-82
2022/01/10 12:40:05;;;;;;;27.80;17.20;;;7.50;99.90;;;;;;5084033;28;20083;-81
2022/01/10 12:42:31;;;;;;;30.90;18.00;;;7.20;99.90;;;;;;5058763;28;20059;-83
2022/01/10 12:44:57;;;;;;;29.67;17.58;;;7.00;99.90;;;;;;5092949;27;20055;-81
2022/01/10 12:47:24;;;;;;;30.50;17.70;;;7.00;99.90;;;;;;5082364;27;20137;-85
2022/01/10 12:49:51;;;;;;;34.05;18.00;;;6.80;99.90;;;;;;5111744;27;20078;-82
2022/01/10 12:52:16;;;;;;;27.73;18.65;;;6.90;99.90;;;;;;5098916;27;20057;-81